Terminal Aerodrome Forecast
Issued by NWS

Home | Current Version | Previous Version | Text Only | Print | Product List | Glossary On
Versions: 1 2 3 4 5 6 7 8 9 10 11 12 13 14 15 16 17 18 19 20 21
000
FTUS41 KBOX 310812 AAA
TAFACK
TAF AMD
KACK 310812Z 3108/0106 22011KT 1/2SM -RA FG OVC003
     FM311300 22009KT 1/2SM FG OVC003
     FM311700 22010KT P6SM BKN040
     FM010300 26008KT P6SM SCT250
     FM010500 31008KT P6SM SCT250=

USA.gov is the U.S. government's official web portal to all federal, state and local government web resources and services.